Terminal Aerodrome Forecast
Issued by NWS Green Bay, WI

Home | Current Version | Previous Version | Text Only | Print | Product List | Glossary On
Versions: 1 2 3 4 5 6 7 8 9 10 11 12 13 14 15 16 17 18 19 20 21 22 23 24 25 26 27 28 29 30 31 32 33 34 35 36 37 38 39 40
248
FTUS43 KGRB 291732
TAFGRB
TAF
KGRB 291732Z 2918/3018 04018G26KT P6SM SCT200
     FM300000 04012KT P6SM SCT140
     FM300400 04008KT P6SM SCT025
     FM300900 04007KT P6SM BKN023
     FM301200 04012KT P6SM SCT015 BKN022
     FM301400 04015G24KT P6SM BKN015 PROB30 3014/3018 4SM -SHRA
      OVC007=

USA.gov is the U.S. government's official web portal to all federal, state and local government web resources and services.